createdAt,value
2023-02-26T00:01:02.868Z,1.50
2023-02-26T00:03:30.647Z,1.30
2023-02-26T00:06:01.362Z,1.29
2023-02-26T00:08:31.492Z,1.45
2023-02-26T00:11:01.837Z,1.50
2023-02-26T00:13:31.748Z,1.36
2023-02-26T00:16:02.060Z,1.26
2023-02-26T00:18:30.670Z,1.26
2023-02-26T00:20:58.762Z,1.07
2023-02-26T00:23:27.471Z,1.13
2023-02-26T00:25:55.144Z,1.16
2023-02-26T00:28:23.530Z,1.16
2023-02-26T00:30:54.089Z,0.99
2023-02-26T00:33:22.490Z,1.00
2023-02-26T00:35:57.216Z,0.98
2023-02-26T00:38:25.671Z,0.80
2023-02-26T00:40:55.565Z,0.48
2023-02-26T00:43:26.594Z,0.49
2023-02-26T00:46:08.290Z,0.34
2023-02-26T00:48:48.444Z,0.38
2023-02-26T00:51:21.945Z,0.43
2023-02-26T00:53:59.142Z,0.43
2023-02-26T00:56:26.855Z,0.51
2023-02-26T00:58:54.671Z,0.56
2023-02-26T01:01:23.594Z,0.48
2023-02-26T01:03:52.018Z,0.48
2023-02-26T01:06:22.695Z,0.48
2023-02-26T01:08:58.195Z,0.47
2023-02-26T01:11:26.263Z,0.48
2023-02-26T01:13:54.544Z,0.45
2023-02-26T01:16:28.848Z,0.30
2023-02-26T01:19:03.831Z,0.20
2023-02-26T01:21:35.810Z,0.09
2023-02-26T01:24:07.685Z,-0.04
2023-02-26T01:26:35.954Z,0.06
2023-02-26T01:29:05.031Z,-0.04
2023-02-26T01:31:42.545Z,-0.10
2023-02-26T01:34:19.609Z,-0.19
2023-02-26T01:36:55.634Z,-0.23
2023-02-26T01:39:30.472Z,-0.13
2023-02-26T01:42:04.771Z,-0.22
2023-02-26T01:44:37.752Z,-0.31
2023-02-26T01:47:17.007Z,-0.36
2023-02-26T01:49:46.347Z,-0.33
2023-02-26T01:53:06.297Z,-0.32
2023-02-26T01:55:34.876Z,-0.20
2023-02-26T01:58:05.890Z,-0.14
2023-02-26T02:00:33.816Z,-0.19
2023-02-26T02:03:03.276Z,-0.07
2023-02-26T02:05:40.359Z,-0.05
2023-02-26T02:08:08.400Z,0.05
2023-02-26T02:10:36.568Z,0.11
2023-02-26T02:13:08.908Z,0.17
2023-02-26T02:15:45.480Z,0.23
2023-02-26T02:18:22.816Z,0.21
2023-02-26T02:21:11.611Z,0.25
2023-02-26T02:23:44.302Z,0.20
2023-02-26T02:26:51.281Z,0.22
2023-02-26T02:29:35.265Z,0.23
2023-02-26T02:32:09.947Z,0.21
2023-02-26T02:34:42.941Z,0.24
2023-02-26T02:37:17.316Z,0.15
2023-02-26T02:39:50.219Z,0.19
2023-02-26T02:42:24.457Z,0.21
2023-02-26T02:44:57.615Z,0.25
2023-02-26T02:47:30.217Z,0.25
2023-02-26T02:50:06.605Z,0.27
2023-02-26T02:52:52.271Z,0.22
2023-02-26T02:55:23.348Z,0.22
2023-02-26T02:57:54.814Z,0.15
2023-02-26T03:00:25.246Z,0.11
2023-02-26T03:03:00.491Z,0.09
2023-02-26T03:05:28.684Z,0.11
2023-02-26T03:07:59.987Z,0.10
2023-02-26T03:10:28.225Z,0.04
2023-02-26T03:12:55.918Z,0.07
2023-02-26T03:15:34.425Z,0.02
2023-02-26T03:18:14.010Z,0.06
2023-02-26T03:20:53.852Z,0.02
2023-02-26T03:23:24.916Z,0.02
2023-02-26T03:25:57.267Z,0.03
2023-02-26T03:28:31.277Z,0.03
2023-02-26T03:31:08.632Z,0.01
2023-02-26T03:33:45.756Z,0.02
2023-02-26T03:36:22.598Z,-0.02
2023-02-26T03:39:09.599Z,-0.01
2023-02-26T03:41:41.985Z,-0.07
2023-02-26T03:44:14.505Z,-0.10
2023-02-26T03:46:47.624Z,-0.12
2023-02-26T03:49:22.460Z,-0.11
2023-02-26T03:51:53.004Z,-0.14
2023-02-26T03:54:52.072Z,-0.14
2023-02-26T03:57:40.729Z,-0.12
2023-02-26T04:00:21.427Z,-0.12
2023-02-26T04:02:55.849Z,-0.12
2023-02-26T04:05:28.886Z,-0.12
2023-02-26T04:07:58.775Z,-0.11
2023-02-26T04:10:34.152Z,-0.06
2023-02-26T04:13:02.786Z,-0.05
2023-02-26T04:15:30.497Z,-0.02
2023-02-26T04:17:58.157Z,0.02
2023-02-26T04:20:30.414Z,0.05
2023-02-26T04:22:58.072Z,0.04
2023-02-26T04:25:25.652Z,0.05
2023-02-26T04:27:54.147Z,0.10
2023-02-26T04:30:22.551Z,0.13
2023-02-26T04:32:50.475Z,0.15
2023-02-26T04:35:19.167Z,0.15
2023-02-26T04:37:48.319Z,0.14
2023-02-26T04:40:17.319Z,0.13
2023-02-26T04:42:47.268Z,0.10
2023-02-26T04:45:19.975Z,0.09
2023-02-26T04:47:47.540Z,0.01
2023-02-26T04:50:15.890Z,-0.03
2023-02-26T04:52:45.361Z,-0.02
2023-02-26T04:55:14.911Z,-0.08
2023-02-26T04:57:43.671Z,-0.22
2023-02-26T05:00:13.168Z,-0.16
2023-02-26T05:02:41.318Z,-0.14
2023-02-26T05:05:10.290Z,-0.04
2023-02-26T05:07:38.499Z,-0.08
2023-02-26T05:10:08.312Z,-0.08
2023-02-26T05:12:38.065Z,-0.11
2023-02-26T05:15:07.018Z,-0.14
2023-02-26T05:17:34.620Z,-0.19
2023-02-26T05:20:02.540Z,-0.25
2023-02-26T05:22:30.784Z,-0.35
2023-02-26T05:24:58.438Z,-0.40
2023-02-26T05:27:26.417Z,-0.48
2023-02-26T05:29:55.330Z,-0.55
2023-02-26T05:32:24.164Z,-0.56
2023-02-26T05:34:51.833Z,-0.64
2023-02-26T05:37:19.710Z,-0.65
2023-02-26T05:39:47.292Z,-0.73
2023-02-26T05:42:16.589Z,-0.78
2023-02-26T05:44:44.160Z,-0.81
2023-02-26T05:47:13.451Z,-0.90
2023-02-26T05:49:41.070Z,-0.99
2023-02-26T05:52:09.468Z,-1.07
2023-02-26T05:54:37.008Z,-1.16
2023-02-26T05:57:05.056Z,-1.22
2023-02-26T05:59:32.652Z,-1.22
2023-02-26T06:02:00.644Z,-1.28
2023-02-26T06:04:29.550Z,-1.26
2023-02-26T06:06:57.511Z,-1.29
2023-02-26T06:09:25.062Z,-1.37
2023-02-26T06:11:54.031Z,-1.38
2023-02-26T06:14:21.599Z,-1.40
2023-02-26T06:16:49.956Z,-1.42
2023-02-26T06:19:17.546Z,-1.42
2023-02-26T06:21:46.989Z,-1.49
2023-02-26T06:24:14.590Z,-1.50
2023-02-26T06:26:42.162Z,-1.55
2023-02-26T06:29:09.849Z,-1.59
2023-02-26T06:31:37.702Z,-1.57
2023-02-26T06:34:05.809Z,-1.55
2023-02-26T06:36:33.408Z,-1.53
2023-02-26T06:39:03.032Z,-1.55
2023-02-26T06:41:30.577Z,-1.50
2023-02-26T06:43:58.164Z,-1.47
2023-02-26T06:46:26.112Z,-1.51
2023-02-26T06:48:54.203Z,-1.51
2023-02-26T06:51:21.774Z,-1.47
2023-02-26T06:53:49.453Z,-1.45
2023-02-26T06:56:18.572Z,-1.48
2023-02-26T06:58:46.352Z,-1.44
2023-02-26T07:01:13.959Z,-1.35
2023-02-26T07:03:41.831Z,-1.28
2023-02-26T07:06:38.638Z,-1.13
2023-02-26T07:09:00.328Z,-1.02
2023-02-26T07:11:29.224Z,-0.96
2023-02-26T07:13:57.416Z,-0.86
2023-02-26T07:16:25.419Z,-0.76
2023-02-26T07:18:53.626Z,-0.65
2023-02-26T07:21:21.211Z,-0.47
2023-02-26T07:23:49.396Z,-0.34
2023-02-26T07:26:17.556Z,-0.28
2023-02-26T07:28:46.722Z,-0.32
2023-02-26T07:31:16.556Z,-0.40
2023-02-26T07:33:44.836Z,-0.63
2023-02-26T07:36:12.398Z,-0.67
2023-02-26T07:38:40.407Z,-0.92
2023-02-26T07:41:08.008Z,-0.99
2023-02-26T07:43:35.626Z,-0.93
2023-02-26T07:46:05.179Z,-0.95
2023-02-26T07:48:33.740Z,-0.84
2023-02-26T07:51:01.458Z,-0.75
2023-02-26T07:53:29.023Z,-0.52
2023-02-26T07:55:56.598Z,-0.29
2023-02-26T07:58:25.107Z,0.30
2023-02-26T08:00:53.279Z,0.62
2023-02-26T08:03:22.784Z,0.95
2023-02-26T08:05:50.367Z,1.21
2023-02-26T08:08:17.923Z,1.36
2023-02-26T08:10:45.822Z,1.58
2023-02-26T08:13:13.372Z,1.87
2023-02-26T08:15:43.862Z,2.15
2023-02-26T08:18:11.590Z,2.28
2023-02-26T08:20:40.929Z,2.34
2023-02-26T08:23:08.490Z,2.34
2023-02-26T08:25:36.381Z,2.48
2023-02-26T08:28:04.152Z,2.52
2023-02-26T08:30:32.447Z,2.88
2023-02-26T08:33:00.034Z,2.92
2023-02-26T08:35:28.132Z,2.96
2023-02-26T08:37:57.207Z,2.76
2023-02-26T08:40:25.226Z,2.92
2023-02-26T08:42:53.548Z,2.92
2023-02-26T08:45:21.195Z,3.30
2023-02-26T08:47:56.742Z,3.10
2023-02-26T08:50:25.317Z,3.11
2023-02-26T08:52:53.051Z,2.99
2023-02-26T08:55:22.815Z,2.42
2023-02-26T08:57:50.401Z,2.66
2023-02-26T09:00:18.560Z,1.97
2023-02-26T09:02:46.865Z,1.83
2023-02-26T09:05:15.723Z,1.65
2023-02-26T09:07:43.917Z,1.59
2023-02-26T09:10:14.253Z,1.27
2023-02-26T09:12:43.222Z,1.33
2023-02-26T09:15:12.575Z,1.57
2023-02-26T09:17:41.212Z,1.77
2023-02-26T09:20:11.421Z,2.10
2023-02-26T09:22:39.080Z,2.17
2023-02-26T09:25:08.174Z,2.38
2023-02-26T09:27:36.264Z,2.49
2023-02-26T09:30:06.926Z,2.65
2023-02-26T09:32:34.782Z,2.64
2023-02-26T09:35:04.470Z,3.13
2023-02-26T09:37:32.632Z,3.36
2023-02-26T09:40:01.144Z,3.45
2023-02-26T09:42:43.587Z,3.55
2023-02-26T09:45:21.320Z,3.40
2023-02-26T09:47:52.772Z,2.90
2023-02-26T09:50:25.092Z,2.93
2023-02-26T09:52:57.835Z,2.69
2023-02-26T09:55:30.975Z,2.26
2023-02-26T09:58:02.119Z,2.03
2023-02-26T10:00:38.329Z,2.07
2023-02-26T10:03:20.675Z,1.87
2023-02-26T10:06:14.121Z,1.16
2023-02-26T10:08:57.293Z,1.02
2023-02-26T10:11:32.769Z,0.70
2023-02-26T10:14:04.960Z,0.92
2023-02-26T10:16:41.170Z,0.56
2023-02-26T10:19:20.214Z,0.69
2023-02-26T10:21:52.873Z,0.53
2023-02-26T10:24:25.650Z,0.59
2023-02-26T10:27:01.541Z,0.88
2023-02-26T10:29:35.514Z,0.96
2023-02-26T10:32:19.602Z,0.74
2023-02-26T10:34:52.484Z,0.67
2023-02-26T10:37:25.140Z,0.75
2023-02-26T10:39:57.751Z,0.82
2023-02-26T10:42:29.838Z,0.77
2023-02-26T10:45:10.497Z,0.93
2023-02-26T10:47:47.812Z,0.87
2023-02-26T10:50:17.146Z,0.77
2023-02-26T10:52:47.007Z,0.98
2023-02-26T10:55:26.112Z,1.07
2023-02-26T10:58:06.867Z,1.10
2023-02-26T11:00:36.163Z,1.24
2023-02-26T11:03:08.241Z,1.22
2023-02-26T11:05:36.331Z,1.51
2023-02-26T11:08:06.803Z,1.86
2023-02-26T11:10:45.813Z,2.02
2023-02-26T11:13:13.928Z,2.12
2023-02-26T11:15:42.045Z,2.27
2023-02-26T11:18:18.022Z,2.28
2023-02-26T11:20:47.809Z,2.24
2023-02-26T11:23:18.779Z,2.14
2023-02-26T11:25:47.132Z,2.16
2023-02-26T11:28:24.146Z,1.94
2023-02-26T11:30:54.341Z,2.08
2023-02-26T11:33:30.099Z,2.11
2023-02-26T11:36:01.146Z,2.34
2023-02-26T11:38:30.049Z,2.69
2023-02-26T11:40:59.083Z,2.60
2023-02-26T11:43:34.823Z,2.16
2023-02-26T11:46:05.514Z,2.25
2023-02-26T11:48:41.573Z,2.23
2023-02-26T11:51:14.305Z,2.30
2023-02-26T11:53:45.231Z,2.11
2023-02-26T11:56:15.630Z,2.01
2023-02-26T11:58:46.912Z,2.07
2023-02-26T12:01:17.573Z,1.70
2023-02-26T12:03:51.135Z,2.07
2023-02-26T12:06:20.290Z,2.13
2023-02-26T12:08:49.307Z,2.11
2023-02-26T12:11:46.643Z,2.20
2023-02-26T12:14:35.129Z,1.95
2023-02-26T12:17:17.118Z,1.83
2023-02-26T12:19:53.358Z,1.64
2023-02-26T12:22:35.181Z,1.63
2023-02-26T12:25:28.762Z,1.65
2023-02-26T12:28:23.999Z,1.68
2023-02-26T12:31:15.595Z,1.57
2023-02-26T12:33:56.557Z,1.50
2023-02-26T12:36:48.383Z,1.79
2023-02-26T12:39:32.590Z,2.31
2023-02-26T12:42:16.392Z,3.01
2023-02-26T12:45:03.140Z,3.86
2023-02-26T12:47:45.168Z,4.71
2023-02-26T12:50:37.702Z,4.75
2023-02-26T12:53:25.739Z,4.31
2023-02-26T12:56:06.213Z,3.77
2023-02-26T12:58:48.546Z,3.31
2023-02-26T13:01:38.710Z,3.30
2023-02-26T13:04:25.346Z,3.65
2023-02-26T13:07:12.403Z,3.84
2023-02-26T13:09:56.365Z,4.05
2023-02-26T13:12:37.701Z,4.67
2023-02-26T13:15:25.587Z,4.73
2023-02-26T13:18:01.346Z,5.50
2023-02-26T13:20:29.954Z,5.19
2023-02-26T13:23:02.858Z,5.36
2023-02-26T13:25:37.808Z,5.34
2023-02-26T13:28:24.606Z,4.79
2023-02-26T13:30:56.616Z,4.80
2023-02-26T13:33:29.601Z,4.88
2023-02-26T13:35:59.795Z,3.95
2023-02-26T13:38:37.035Z,2.90
2023-02-26T13:41:12.913Z,2.60
2023-02-26T13:44:02.640Z,2.04
2023-02-26T13:46:47.201Z,1.64
2023-02-26T13:49:21.146Z,1.61
2023-02-26T13:51:50.571Z,1.65
2023-02-26T13:54:34.352Z,1.76
2023-02-26T13:57:21.997Z,1.83
2023-02-26T13:59:56.638Z,2.26
2023-02-26T14:02:47.886Z,2.43
2023-02-26T14:05:46.422Z,2.70
2023-02-26T14:08:45.279Z,2.76
2023-02-26T14:11:35.132Z,3.05
2023-02-26T14:14:13.835Z,3.33
2023-02-26T14:16:44.434Z,3.58
2023-02-26T14:19:25.013Z,3.84
2023-02-26T14:21:57.593Z,4.15
2023-02-26T14:24:36.949Z,4.65
2023-02-26T14:27:10.307Z,4.46
2023-02-26T14:29:42.996Z,4.24
2023-02-26T14:32:16.556Z,3.98
2023-02-26T14:34:51.917Z,4.02
2023-02-26T14:37:23.940Z,3.39
2023-02-26T14:39:57.252Z,3.47
2023-02-26T14:42:34.349Z,3.64
2023-02-26T14:45:14.978Z,3.25
2023-02-26T14:47:45.355Z,3.40
2023-02-26T14:50:17.822Z,3.22
2023-02-26T14:53:16.008Z,2.98
2023-02-26T14:56:00.786Z,2.90
2023-02-26T14:58:42.117Z,2.96
2023-02-26T15:01:24.981Z,3.09
2023-02-26T15:04:22.366Z,3.43
2023-02-26T15:07:04.733Z,3.77
2023-02-26T15:09:47.618Z,3.65
2023-02-26T15:12:27.437Z,3.11
2023-02-26T15:15:11.313Z,3.20
2023-02-26T15:17:56.071Z,2.98
2023-02-26T15:20:32.671Z,3.15
2023-02-26T15:23:19.181Z,3.25
2023-02-26T15:25:50.449Z,3.30
2023-02-26T15:28:23.862Z,3.68
2023-02-26T15:30:52.737Z,3.88
2023-02-26T15:33:24.479Z,3.39
2023-02-26T15:35:53.553Z,4.03
2023-02-26T15:38:21.839Z,4.51
2023-02-26T15:40:53.161Z,4.99
2023-02-26T15:43:25.477Z,4.97
2023-02-26T15:45:55.465Z,3.78
2023-02-26T15:48:30.383Z,3.04
2023-02-26T15:51:02.249Z,2.69
2023-02-26T15:53:33.200Z,2.51
2023-02-26T15:56:03.227Z,2.13
2023-02-26T15:58:37.151Z,2.20
2023-02-26T16:01:07.393Z,2.18
2023-02-26T16:03:39.042Z,2.31
2023-02-26T16:06:12.466Z,2.37
2023-02-26T16:08:40.649Z,2.46
2023-02-26T16:11:09.306Z,2.43
2023-02-26T16:13:42.505Z,2.62
2023-02-26T16:16:16.585Z,2.81
2023-02-26T16:18:46.363Z,2.82
2023-02-26T16:21:23.996Z,2.56
2023-02-26T16:23:55.043Z,2.24
2023-02-26T16:26:27.943Z,1.93
2023-02-26T16:29:00.425Z,1.61
2023-02-26T16:31:31.063Z,1.64
2023-02-26T16:34:02.676Z,1.43
2023-02-26T16:36:32.999Z,1.41
2023-02-26T16:39:11.352Z,1.37
2023-02-26T16:41:41.661Z,1.05
2023-02-26T16:44:40.452Z,1.11
2023-02-26T16:47:10.605Z,0.90
2023-02-26T16:49:42.155Z,0.95
2023-02-26T16:52:17.217Z,0.94
2023-02-26T16:54:52.527Z,0.58
2023-02-26T16:57:25.078Z,0.87
2023-02-26T16:59:56.839Z,0.57
2023-02-26T17:02:27.464Z,0.55
2023-02-26T17:05:03.825Z,0.23
2023-02-26T17:07:34.328Z,0.34
2023-02-26T17:10:09.310Z,0.16
2023-02-26T17:12:45.670Z,0.09
2023-02-26T17:15:20.681Z,-0.09
2023-02-26T17:17:48.581Z,-0.13
2023-02-26T17:20:18.243Z,-0.12
2023-02-26T17:22:46.072Z,-0.12
2023-02-26T17:25:18.650Z,-0.07
2023-02-26T17:27:46.954Z,-0.10
2023-02-26T17:30:17.331Z,-0.14
2023-02-26T17:32:45.490Z,-0.02
2023-02-26T17:35:14.017Z,0.03
2023-02-26T17:37:44.230Z,-0.08
2023-02-26T17:40:20.136Z,0.05
2023-02-26T17:42:48.924Z,0.11
2023-02-26T17:45:16.873Z,0.17
2023-02-26T17:47:46.773Z,0.28
2023-02-26T17:50:25.820Z,0.22
2023-02-26T17:52:55.450Z,0.32
2023-02-26T17:55:23.066Z,0.16
2023-02-26T17:57:51.026Z,0.28
2023-02-26T18:00:20.003Z,0.31
2023-02-26T18:02:47.692Z,0.23
2023-02-26T18:05:15.739Z,0.22
2023-02-26T18:07:43.599Z,0.22
2023-02-26T18:10:18.142Z,0.15
2023-02-26T18:12:45.800Z,0.12
2023-02-26T18:15:13.693Z,0.11
2023-02-26T18:17:41.515Z,0.00
2023-02-26T18:20:16.374Z,-0.04
2023-02-26T18:22:44.457Z,-0.06
2023-02-26T18:25:14.712Z,0.01
2023-02-26T18:27:42.505Z,-0.01
2023-02-26T18:30:23.380Z,-0.20
2023-02-26T18:32:53.189Z,-0.19
2023-02-26T18:35:26.421Z,-0.15
2023-02-26T18:37:57.182Z,-0.19
2023-02-26T18:40:28.572Z,-0.28
2023-02-26T18:42:57.196Z,-0.39
2023-02-26T18:45:25.976Z,-0.38
2023-02-26T18:47:54.386Z,-0.25
2023-02-26T18:50:24.875Z,-0.20
2023-02-26T18:52:52.654Z,-0.30
2023-02-26T18:55:21.524Z,-0.20
2023-02-26T18:57:51.748Z,-0.28
2023-02-26T19:00:24.009Z,-0.14
2023-02-26T19:02:53.985Z,-0.13
2023-02-26T19:05:24.653Z,-0.13
2023-02-26T19:07:52.751Z,-0.07
2023-02-26T19:10:20.507Z,-0.04
2023-02-26T19:12:48.191Z,-0.01
2023-02-26T19:15:18.502Z,0.00
2023-02-26T19:17:46.658Z,-0.14
2023-02-26T19:20:14.950Z,-0.16
2023-02-26T19:22:43.594Z,-0.09
2023-02-26T19:25:11.290Z,-0.16
2023-02-26T19:27:39.643Z,-0.33
2023-02-26T19:30:10.431Z,-0.29
2023-02-26T19:32:39.676Z,-0.33
2023-02-26T19:35:08.759Z,-0.67
2023-02-26T19:37:36.626Z,-0.54
2023-02-26T19:40:09.715Z,-0.51
2023-02-26T19:42:37.746Z,-0.54
2023-02-26T19:45:06.661Z,-0.49
2023-02-26T19:47:34.238Z,-0.72
2023-02-26T19:50:03.445Z,-0.78
2023-02-26T19:52:31.651Z,-0.57
2023-02-26T19:54:59.403Z,-0.50
2023-02-26T19:57:28.440Z,-0.47
2023-02-26T19:59:56.634Z,-0.45
2023-02-26T20:02:24.244Z,-0.31
2023-02-26T20:04:51.859Z,-0.31
2023-02-26T20:07:20.783Z,-0.15
2023-02-26T20:09:49.890Z,-0.23
2023-02-26T20:12:17.494Z,-0.42
2023-02-26T20:14:45.306Z,-0.39
2023-02-26T20:17:12.883Z,-0.30
2023-02-26T20:19:40.912Z,-0.39
2023-02-26T20:22:08.455Z,-0.36
2023-02-26T20:24:38.155Z,-0.36
2023-02-26T20:27:07.054Z,-0.31
2023-02-26T20:29:34.741Z,-0.28
2023-02-26T20:32:02.513Z,-0.17
2023-02-26T20:34:30.943Z,-0.31
2023-02-26T20:36:58.564Z,-0.31
2023-02-26T20:39:26.447Z,-0.24
2023-02-26T20:41:55.356Z,-0.19
2023-02-26T20:44:22.918Z,-0.30
2023-02-26T20:46:50.545Z,-0.29
2023-02-26T20:49:18.466Z,-0.29
2023-02-26T20:51:46.045Z,-0.19
2023-02-26T20:54:15.264Z,-0.37
2023-02-26T20:56:42.823Z,-0.31
2023-02-26T20:59:12.148Z,-0.38
2023-02-26T21:01:39.863Z,-0.40
2023-02-26T21:04:09.837Z,-0.44
2023-02-26T21:06:38.296Z,-0.49
2023-02-26T21:09:08.631Z,-0.52
2023-02-26T21:11:37.161Z,-0.49
2023-02-26T21:14:07.354Z,-0.59
2023-02-26T21:16:36.533Z,-0.54
2023-02-26T21:19:04.746Z,-0.61
2023-02-26T21:21:32.781Z,-0.51
2023-02-26T21:24:00.600Z,-0.57
2023-02-26T21:26:28.552Z,-0.46
2023-02-26T21:28:56.216Z,-0.55
2023-02-26T21:31:24.199Z,-0.63
2023-02-26T21:33:53.119Z,-0.63
2023-02-26T21:36:21.834Z,-0.61
2023-02-26T21:38:49.583Z,-0.60
2023-02-26T21:41:17.543Z,-0.64
2023-02-26T21:43:45.097Z,-0.54
2023-02-26T21:46:13.057Z,-0.54
2023-02-26T21:48:40.769Z,-0.62
2023-02-26T21:51:10.088Z,-0.54
2023-02-26T21:53:37.702Z,-0.49
2023-02-26T21:56:06.032Z,-0.54
2023-02-26T21:58:33.660Z,-0.59
2023-02-26T22:01:01.577Z,-0.60
2023-02-26T22:03:29.598Z,-0.59
2023-02-26T22:05:57.770Z,-0.58
2023-02-26T22:08:26.680Z,-0.56
2023-02-26T22:10:54.617Z,-0.54
2023-02-26T22:13:22.183Z,-0.86
2023-02-26T22:15:49.786Z,-0.78
2023-02-26T22:18:17.343Z,-0.59
2023-02-26T22:20:45.056Z,-0.72
2023-02-26T22:23:12.614Z,-0.81
2023-02-26T22:25:41.973Z,-0.63
2023-02-26T22:28:09.706Z,-0.79
2023-02-26T22:30:37.996Z,-0.62
2023-02-26T22:33:05.815Z,-0.64
2023-02-26T22:35:33.637Z,-0.73
2023-02-26T22:38:01.270Z,-0.72
2023-02-26T22:40:28.903Z,-0.79
2023-02-26T22:42:58.650Z,-0.55
2023-02-26T22:45:26.252Z,-0.65
2023-02-26T22:47:53.992Z,-0.60
2023-02-26T22:50:21.602Z,-0.63
2023-02-26T22:52:49.598Z,-0.57
2023-02-26T22:55:17.353Z,-0.69
2023-02-26T22:57:45.102Z,-0.58
2023-02-26T23:00:18.592Z,-0.59
2023-02-26T23:02:47.796Z,-0.85
2023-02-26T23:05:15.767Z,-0.74
2023-02-26T23:07:44.022Z,-0.72
2023-02-26T23:10:14.692Z,-0.72
2023-02-26T23:12:43.009Z,-0.76
2023-02-26T23:15:12.110Z,-0.77
2023-02-26T23:17:42.021Z,-0.68
2023-02-26T23:20:13.642Z,-0.61
2023-02-26T23:22:43.566Z,-0.71
2023-02-26T23:25:11.942Z,-0.65
2023-02-26T23:27:40.377Z,-0.68
2023-02-26T23:30:09.221Z,-0.80
2023-02-26T23:32:37.708Z,-0.74
2023-02-26T23:35:07.610Z,-0.77
2023-02-26T23:37:35.589Z,-0.78
2023-02-26T23:40:04.007Z,-0.71
2023-02-26T23:42:31.887Z,-0.83
2023-02-26T23:44:59.479Z,-0.96
2023-02-26T23:47:27.934Z,-0.92
2023-02-26T23:49:55.572Z,-0.81
2023-02-26T23:52:25.861Z,-0.80
2023-02-26T23:54:54.367Z,-0.76
2023-02-26T23:57:22.198Z,-0.75
2023-02-26T23:59:49.859Z,-0.82
